sensor_id;sensor_type;location;lat;lon;timestamp;temperature;humidity
13980;DHT22;73871;49.900;8.594;2024-03-25T00:02:10;8.00;99.90
13980;DHT22;73871;49.900;8.594;2024-03-25T00:04:36;8.00;99.90
13980;DHT22;73871;49.900;8.594;2024-03-25T00:07:02;8.00;99.90
13980;DHT22;73871;49.900;8.594;2024-03-25T00:09:28;8.00;99.90
13980;DHT22;73871;49.900;8.594;2024-03-25T00:11:54;8.00;99.90
13980;DHT22;73871;49.900;8.594;2024-03-25T00:14:20;8.10;99.90
13980;DHT22;73871;49.900;8.594;2024-03-25T00:16:46;8.00;99.90
13980;DHT22;73871;49.900;8.594;2024-03-25T00:19:12;8.00;99.90
13980;DHT22;73871;49.900;8.594;2024-03-25T00:21:38;8.00;99.90
13980;DHT22;73871;49.900;8.594;2024-03-25T00:24:04;8.00;99.90
13980;DHT22;73871;49.900;8.594;2024-03-25T00:26:30;8.00;99.90
13980;DHT22;73871;49.900;8.594;2024-03-25T00:28:56;8.00;99.90
13980;DHT22;73871;49.900;8.594;2024-03-25T00:31:22;8.00;99.90
13980;DHT22;73871;49.900;8.594;2024-03-25T00:33:47;8.10;99.90
13980;DHT22;73871;49.900;8.594;2024-03-25T00:36:13;8.00;99.90
13980;DHT22;73871;49.900;8.594;2024-03-25T00:38:39;8.00;99.90
13980;DHT22;73871;49.900;8.594;2024-03-25T00:41:05;8.00;99.90
13980;DHT22;73871;49.900;8.594;2024-03-25T00:43:30;7.90;99.90
13980;DHT22;73871;49.900;8.594;2024-03-25T00:45:56;7.90;99.90
13980;DHT22;73871;49.900;8.594;2024-03-25T00:48:23;7.80;99.90
13980;DHT22;73871;49.900;8.594;2024-03-25T00:50:49;7.80;99.90
13980;DHT22;73871;49.900;8.594;2024-03-25T00:53:14;7.80;99.90
13980;DHT22;73871;49.900;8.594;2024-03-25T00:55:40;7.80;99.90
13980;DHT22;73871;49.900;8.594;2024-03-25T00:58:06;7.70;99.90
13980;DHT22;73871;49.900;8.594;2024-03-25T01:00:32;7.70;99.90
13980;DHT22;73871;49.900;8.594;2024-03-25T01:02:58;7.70;99.90
13980;DHT22;73871;49.900;8.594;2024-03-25T01:05:24;7.70;99.90
13980;DHT22;73871;49.900;8.594;2024-03-25T01:07:50;7.70;99.90
13980;DHT22;73871;49.900;8.594;2024-03-25T01:10:16;7.70;99.90
13980;DHT22;73871;49.900;8.594;2024-03-25T01:12:42;7.60;99.90
13980;DHT22;73871;49.900;8.594;2024-03-25T01:15:08;7.60;99.90
13980;DHT22;73871;49.900;8.594;2024-03-25T01:17:38;7.70;99.90
13980;DHT22;73871;49.900;8.594;2024-03-25T01:20:04;7.70;99.90
13980;DHT22;73871;49.900;8.594;2024-03-25T01:22:31;7.70;99.90
13980;DHT22;73871;49.900;8.594;2024-03-25T01:24:57;7.60;99.90
13980;DHT22;73871;49.900;8.594;2024-03-25T01:27:23;7.60;99.90
13980;DHT22;73871;49.900;8.594;2024-03-25T01:29:49;7.60;99.90
13980;DHT22;73871;49.900;8.594;2024-03-25T01:32:15;7.60;99.90
13980;DHT22;73871;49.900;8.594;2024-03-25T01:34:41;7.60;99.90
13980;DHT22;73871;49.900;8.594;2024-03-25T01:37:06;7.60;99.90
13980;DHT22;73871;49.900;8.594;2024-03-25T01:39:32;7.60;99.90
13980;DHT22;73871;49.900;8.594;2024-03-25T01:41:58;7.60;99.90
13980;DHT22;73871;49.900;8.594;2024-03-25T01:44:24;7.60;99.90
13980;DHT22;73871;49.900;8.594;2024-03-25T01:46:50;7.60;99.90
13980;DHT22;73871;49.900;8.594;2024-03-25T01:49:19;7.60;99.90
13980;DHT22;73871;49.900;8.594;2024-03-25T01:51:45;7.60;99.90
13980;DHT22;73871;49.900;8.594;2024-03-25T01:54:11;7.50;99.90
13980;DHT22;73871;49.900;8.594;2024-03-25T01:56:42;7.50;99.90
13980;DHT22;73871;49.900;8.594;2024-03-25T01:59:08;7.50;99.90
13980;DHT22;73871;49.900;8.594;2024-03-25T02:01:34;7.40;99.90
13980;DHT22;73871;49.900;8.594;2024-03-25T02:04:00;7.40;99.90
13980;DHT22;73871;49.900;8.594;2024-03-25T02:06:27;7.30;99.90
13980;DHT22;73871;49.900;8.594;2024-03-25T02:08:55;7.30;99.90
13980;DHT22;73871;49.900;8.594;2024-03-25T02:11:22;7.30;99.90
13980;DHT22;73871;49.900;8.594;2024-03-25T02:13:50;7.20;99.90
13980;DHT22;73871;49.900;8.594;2024-03-25T02:16:16;7.30;99.90
13980;DHT22;73871;49.900;8.594;2024-03-25T02:18:41;7.30;99.90
13980;DHT22;73871;49.900;8.594;2024-03-25T02:21:07;7.30;99.90
13980;DHT22;73871;49.900;8.594;2024-03-25T02:23:33;7.30;99.90
13980;DHT22;73871;49.900;8.594;2024-03-25T02:26:02;7.30;99.90
13980;DHT22;73871;49.900;8.594;2024-03-25T02:28:28;7.30;99.90
13980;DHT22;73871;49.900;8.594;2024-03-25T02:30:54;7.30;99.90
13980;DHT22;73871;49.900;8.594;2024-03-25T02:33:20;7.20;99.90
13980;DHT22;73871;49.900;8.594;2024-03-25T02:35:46;7.20;99.90
13980;DHT22;73871;49.900;8.594;2024-03-25T02:38:12;7.20;99.90
13980;DHT22;73871;49.900;8.594;2024-03-25T02:40:39;7.20;99.90
13980;DHT22;73871;49.900;8.594;2024-03-25T02:43:06;7.20;99.90
13980;DHT22;73871;49.900;8.594;2024-03-25T02:45:33;7.20;99.90
13980;DHT22;73871;49.900;8.594;2024-03-25T02:47:59;7.20;99.90
13980;DHT22;73871;49.900;8.594;2024-03-25T02:50:25;7.20;99.90
13980;DHT22;73871;49.900;8.594;2024-03-25T02:52:51;7.20;99.90
13980;DHT22;73871;49.900;8.594;2024-03-25T02:55:17;7.20;99.90
13980;DHT22;73871;49.900;8.594;2024-03-25T02:57:43;7.20;99.90
13980;DHT22;73871;49.900;8.594;2024-03-25T03:00:09;7.20;99.90
13980;DHT22;73871;49.900;8.594;2024-03-25T03:02:35;7.20;99.90
13980;DHT22;73871;49.900;8.594;2024-03-25T03:05:01;7.20;99.90
13980;DHT22;73871;49.900;8.594;2024-03-25T03:07:29;7.20;99.90
13980;DHT22;73871;49.900;8.594;2024-03-25T03:09:55;7.20;99.90
13980;DHT22;73871;49.900;8.594;2024-03-25T03:12:21;7.20;99.90
13980;DHT22;73871;49.900;8.594;2024-03-25T03:14:46;7.20;99.90
13980;DHT22;73871;49.900;8.594;2024-03-25T03:17:12;7.20;99.90
13980;DHT22;73871;49.900;8.594;2024-03-25T03:19:38;7.20;99.90
13980;DHT22;73871;49.900;8.594;2024-03-25T03:22:04;7.10;99.90
13980;DHT22;73871;49.900;8.594;2024-03-25T03:24:30;7.10;99.90
13980;DHT22;73871;49.900;8.594;2024-03-25T03:26:55;7.10;99.90
13980;DHT22;73871;49.900;8.594;2024-03-25T03:29:21;7.10;99.90
13980;DHT22;73871;49.900;8.594;2024-03-25T03:31:47;6.90;99.90
13980;DHT22;73871;49.900;8.594;2024-03-25T03:34:13;6.90;99.90
13980;DHT22;73871;49.900;8.594;2024-03-25T03:36:38;6.80;99.90
13980;DHT22;73871;49.900;8.594;2024-03-25T03:39:06;6.70;99.90
13980;DHT22;73871;49.900;8.594;2024-03-25T03:41:34;6.60;99.90
13980;DHT22;73871;49.900;8.594;2024-03-25T03:44:00;6.60;99.90
13980;DHT22;73871;49.900;8.594;2024-03-25T03:46:26;6.50;99.90
13980;DHT22;73871;49.900;8.594;2024-03-25T03:48:51;6.50;99.90
13980;DHT22;73871;49.900;8.594;2024-03-25T03:51:17;6.50;99.90
13980;DHT22;73871;49.900;8.594;2024-03-25T03:53:43;6.50;99.90
13980;DHT22;73871;49.900;8.594;2024-03-25T03:56:09;6.50;99.90
13980;DHT22;73871;49.900;8.594;2024-03-25T03:58:35;6.50;99.90
13980;DHT22;73871;49.900;8.594;2024-03-25T04:01:00;6.50;99.90
13980;DHT22;73871;49.900;8.594;2024-03-25T04:03:26;6.40;99.90
13980;DHT22;73871;49.900;8.594;2024-03-25T04:05:52;6.50;99.90
13980;DHT22;73871;49.900;8.594;2024-03-25T04:08:18;6.50;99.90
13980;DHT22;73871;49.900;8.594;2024-03-25T04:10:45;6.50;99.90
13980;DHT22;73871;49.900;8.594;2024-03-25T04:13:11;6.50;99.90
13980;DHT22;73871;49.900;8.594;2024-03-25T04:15:39;6.50;99.90
13980;DHT22;73871;49.900;8.594;2024-03-25T04:18:05;6.60;99.90
13980;DHT22;73871;49.900;8.594;2024-03-25T04:20:41;6.60;99.90
13980;DHT22;73871;49.900;8.594;2024-03-25T04:23:07;6.50;99.90
13980;DHT22;73871;49.900;8.594;2024-03-25T04:25:34;6.50;99.90
13980;DHT22;73871;49.900;8.594;2024-03-25T04:28:00;6.50;99.90
13980;DHT22;73871;49.900;8.594;2024-03-25T04:30:26;6.50;99.90
13980;DHT22;73871;49.900;8.594;2024-03-25T04:32:52;6.40;99.90
13980;DHT22;73871;49.900;8.594;2024-03-25T04:35:18;6.50;99.90
13980;DHT22;73871;49.900;8.594;2024-03-25T04:37:43;6.40;99.90
13980;DHT22;73871;49.900;8.594;2024-03-25T04:40:10;6.30;99.90
13980;DHT22;73871;49.900;8.594;2024-03-25T04:42:36;6.10;99.90
13980;DHT22;73871;49.900;8.594;2024-03-25T04:45:02;5.90;99.90
13980;DHT22;73871;49.900;8.594;2024-03-25T04:47:27;5.80;99.90
13980;DHT22;73871;49.900;8.594;2024-03-25T04:49:53;5.70;99.90
13980;DHT22;73871;49.900;8.594;2024-03-25T04:52:19;5.50;99.90
13980;DHT22;73871;49.900;8.594;2024-03-25T04:54:49;5.40;99.90
13980;DHT22;73871;49.900;8.594;2024-03-25T04:57:15;5.30;99.90
13980;DHT22;73871;49.900;8.594;2024-03-25T04:59:40;5.20;99.90
13980;DHT22;73871;49.900;8.594;2024-03-25T05:02:06;5.00;99.90
13980;DHT22;73871;49.900;8.594;2024-03-25T05:04:32;4.90;99.90
13980;DHT22;73871;49.900;8.594;2024-03-25T05:06:58;4.80;99.90
13980;DHT22;73871;49.900;8.594;2024-03-25T05:09:24;4.80;99.90
13980;DHT22;73871;49.900;8.594;2024-03-25T05:11:50;4.70;99.90
13980;DHT22;73871;49.900;8.594;2024-03-25T05:14:16;4.70;99.90
13980;DHT22;73871;49.900;8.594;2024-03-25T05:16:41;4.50;99.90
13980;DHT22;73871;49.900;8.594;2024-03-25T05:19:07;4.40;99.90
13980;DHT22;73871;49.900;8.594;2024-03-25T05:21:33;4.30;99.90
13980;DHT22;73871;49.900;8.594;2024-03-25T05:23:59;4.20;99.90
13980;DHT22;73871;49.900;8.594;2024-03-25T05:26:25;4.10;99.90
13980;DHT22;73871;49.900;8.594;2024-03-25T05:28:57;4.10;99.90
13980;DHT22;73871;49.900;8.594;2024-03-25T05:31:23;4.10;99.90
13980;DHT22;73871;49.900;8.594;2024-03-25T05:33:50;4.10;99.90
13980;DHT22;73871;49.900;8.594;2024-03-25T05:36:15;4.00;99.90
13980;DHT22;73871;49.900;8.594;2024-03-25T05:38:41;4.10;99.90
13980;DHT22;73871;49.900;8.594;2024-03-25T05:41:11;4.10;99.90
13980;DHT22;73871;49.900;8.594;2024-03-25T05:43:37;4.20;99.90
13980;DHT22;73871;49.900;8.594;2024-03-25T05:46:03;4.20;99.90
13980;DHT22;73871;49.900;8.594;2024-03-25T05:48:29;4.30;99.90
13980;DHT22;73871;49.900;8.594;2024-03-25T05:51:04;4.40;99.90
13980;DHT22;73871;49.900;8.594;2024-03-25T05:53:36;5.00;99.90
13980;DHT22;73871;49.900;8.594;2024-03-25T05:56:03;6.00;99.90
13980;DHT22;73871;49.900;8.594;2024-03-25T05:58:29;7.00;99.90
13980;DHT22;73871;49.900;8.594;2024-03-25T06:00:55;7.80;99.90
13980;DHT22;73871;49.900;8.594;2024-03-25T06:03:21;8.10;99.90
13980;DHT22;73871;49.900;8.594;2024-03-25T06:05:48;8.60;99.90
13980;DHT22;73871;49.900;8.594;2024-03-25T06:08:14;8.50;99.90
13980;DHT22;73871;49.900;8.594;2024-03-25T06:10:52;8.60;99.90
13980;DHT22;73871;49.900;8.594;2024-03-25T06:13:19;8.50;99.90
13980;DHT22;73871;49.900;8.594;2024-03-25T06:15:45;7.60;99.90
13980;DHT22;73871;49.900;8.594;2024-03-25T06:18:11;7.10;99.90
13980;DHT22;73871;49.900;8.594;2024-03-25T06:20:37;6.60;99.90
13980;DHT22;73871;49.900;8.594;2024-03-25T06:23:03;6.20;99.90
13980;DHT22;73871;49.900;8.594;2024-03-25T06:25:29;5.80;99.90
13980;DHT22;73871;49.900;8.594;2024-03-25T06:27:55;5.90;99.90
13980;DHT22;73871;49.900;8.594;2024-03-25T06:30:21;5.80;99.90
13980;DHT22;73871;49.900;8.594;2024-03-25T06:33:06;6.10;99.90
13980;DHT22;73871;49.900;8.594;2024-03-25T06:35:51;6.00;99.90
13980;DHT22;73871;49.900;8.594;2024-03-25T06:38:17;6.20;99.90
13980;DHT22;73871;49.900;8.594;2024-03-25T06:40:45;6.40;99.90
13980;DHT22;73871;49.900;8.594;2024-03-25T06:43:11;6.50;99.90
13980;DHT22;73871;49.900;8.594;2024-03-25T06:45:37;6.60;99.90
13980;DHT22;73871;49.900;8.594;2024-03-25T06:48:03;7.10;99.90
13980;DHT22;73871;49.900;8.594;2024-03-25T06:50:29;7.60;99.90
13980;DHT22;73871;49.900;8.594;2024-03-25T06:52:55;7.80;99.90
13980;DHT22;73871;49.900;8.594;2024-03-25T06:55:21;8.00;99.90
13980;DHT22;73871;49.900;8.594;2024-03-25T06:57:48;8.10;99.90
13980;DHT22;73871;49.900;8.594;2024-03-25T07:00:14;8.20;99.90
13980;DHT22;73871;49.900;8.594;2024-03-25T07:02:40;8.30;99.90
13980;DHT22;73871;49.900;8.594;2024-03-25T07:05:07;8.30;99.90
13980;DHT22;73871;49.900;8.594;2024-03-25T07:07:33;8.20;99.90
13980;DHT22;73871;49.900;8.594;2024-03-25T07:10:00;8.20;99.90
13980;DHT22;73871;49.900;8.594;2024-03-25T07:12:26;8.40;99.90
13980;DHT22;73871;49.900;8.594;2024-03-25T07:14:52;8.00;99.90
13980;DHT22;73871;49.900;8.594;2024-03-25T07:17:18;8.30;99.90
13980;DHT22;73871;49.900;8.594;2024-03-25T07:19:44;8.20;99.90
13980;DHT22;73871;49.900;8.594;2024-03-25T07:22:10;8.50;99.90
13980;DHT22;73871;49.900;8.594;2024-03-25T07:24:36;9.20;99.90
13980;DHT22;73871;49.900;8.594;2024-03-25T07:27:02;9.40;99.90
13980;DHT22;73871;49.900;8.594;2024-03-25T07:29:28;9.00;99.90
13980;DHT22;73871;49.900;8.594;2024-03-25T07:31:54;8.80;99.90
13980;DHT22;73871;49.900;8.594;2024-03-25T07:34:20;9.10;99.90
13980;DHT22;73871;49.900;8.594;2024-03-25T07:36:45;9.10;99.90
13980;DHT22;73871;49.900;8.594;2024-03-25T07:39:12;9.30;99.90
13980;DHT22;73871;49.900;8.594;2024-03-25T07:41:38;9.40;99.90
13980;DHT22;73871;49.900;8.594;2024-03-25T07:44:04;9.70;99.90
13980;DHT22;73871;49.900;8.594;2024-03-25T07:46:30;10.00;99.90
13980;DHT22;73871;49.900;8.594;2024-03-25T07:48:56;9.90;99.90
13980;DHT22;73871;49.900;8.594;2024-03-25T07:51:22;9.80;99.90
13980;DHT22;73871;49.900;8.594;2024-03-25T07:53:48;9.60;99.90
13980;DHT22;73871;49.900;8.594;2024-03-25T07:56:17;9.40;99.90
13980;DHT22;73871;49.900;8.594;2024-03-25T07:58:43;9.90;99.90
13980;DHT22;73871;49.900;8.594;2024-03-25T08:01:08;10.30;99.90
13980;DHT22;73871;49.900;8.594;2024-03-25T08:03:34;10.60;99.90
13980;DHT22;73871;49.900;8.594;2024-03-25T08:06:00;10.60;99.90
13980;DHT22;73871;49.900;8.594;2024-03-25T08:08:26;10.80;99.90
13980;DHT22;73871;49.900;8.594;2024-03-25T08:10:53;10.90;99.90
13980;DHT22;73871;49.900;8.594;2024-03-25T08:13:19;12.20;99.90
13980;DHT22;73871;49.900;8.594;2024-03-25T08:15:48;13.60;99.90
13980;DHT22;73871;49.900;8.594;2024-03-25T08:18:14;14.80;99.90
13980;DHT22;73871;49.900;8.594;2024-03-25T08:20:40;16.90;99.90
13980;DHT22;73871;49.900;8.594;2024-03-25T08:23:05;18.00;99.90
13980;DHT22;73871;49.900;8.594;2024-03-25T08:25:32;18.30;99.90
13980;DHT22;73871;49.900;8.594;2024-03-25T08:27:58;18.30;99.90
13980;DHT22;73871;49.900;8.594;2024-03-25T08:30:24;20.80;99.90
13980;DHT22;73871;49.900;8.594;2024-03-25T08:32:51;21.50;99.90
13980;DHT22;73871;49.900;8.594;2024-03-25T08:35:17;21.40;99.90
13980;DHT22;73871;49.900;8.594;2024-03-25T08:37:43;21.40;99.90
13980;DHT22;73871;49.900;8.594;2024-03-25T08:40:09;21.70;99.90
13980;DHT22;73871;49.900;8.594;2024-03-25T08:42:35;23.70;99.90
13980;DHT22;73871;49.900;8.594;2024-03-25T08:45:01;23.90;99.70
13980;DHT22;73871;49.900;8.594;2024-03-25T08:47:27;22.70;97.20
13980;DHT22;73871;49.900;8.594;2024-03-25T08:49:52;20.60;98.10
13980;DHT22;73871;49.900;8.594;2024-03-25T08:52:18;20.20;98.80
13980;DHT22;73871;49.900;8.594;2024-03-25T08:54:44;20.10;98.30
13980;DHT22;73871;49.900;8.594;2024-03-25T08:57:10;21.30;97.70
13980;DHT22;73871;49.900;8.594;2024-03-25T08:59:36;22.00;95.50
13980;DHT22;73871;49.900;8.594;2024-03-25T09:02:01;20.90;97.00
13980;DHT22;73871;49.900;8.594;2024-03-25T09:04:27;22.60;95.10
13980;DHT22;73871;49.900;8.594;2024-03-25T09:06:53;21.10;94.20
13980;DHT22;73871;49.900;8.594;2024-03-25T09:09:19;21.60;96.70
13980;DHT22;73871;49.900;8.594;2024-03-25T09:12:04;20.70;95.30
13980;DHT22;73871;49.900;8.594;2024-03-25T09:14:29;22.20;96.70
13980;DHT22;73871;49.900;8.594;2024-03-25T09:16:55;23.20;96.10
13980;DHT22;73871;49.900;8.594;2024-03-25T09:19:21;24.10;94.40
13980;DHT22;73871;49.900;8.594;2024-03-25T09:21:47;24.60;92.60
13980;DHT22;73871;49.900;8.594;2024-03-25T09:24:12;25.80;89.40
13980;DHT22;73871;49.900;8.594;2024-03-25T09:26:38;26.30;85.70
13980;DHT22;73871;49.900;8.594;2024-03-25T09:29:04;26.10;84.30
13980;DHT22;73871;49.900;8.594;2024-03-25T09:31:30;25.30;78.20
13980;DHT22;73871;49.900;8.594;2024-03-25T09:33:56;22.10;83.70
13980;DHT22;73871;49.900;8.594;2024-03-25T09:36:22;22.40;81.10
13980;DHT22;73871;49.900;8.594;2024-03-25T09:38:49;22.60;85.30
13980;DHT22;73871;49.900;8.594;2024-03-25T09:41:16;21.70;83.60
13980;DHT22;73871;49.900;8.594;2024-03-25T09:43:48;21.90;88.10
13980;DHT22;73871;49.900;8.594;2024-03-25T09:46:16;21.90;90.90
13980;DHT22;73871;49.900;8.594;2024-03-25T09:48:42;24.10;87.60
13980;DHT22;73871;49.900;8.594;2024-03-25T09:51:11;25.20;84.50
13980;DHT22;73871;49.900;8.594;2024-03-25T09:53:37;24.50;84.10
13980;DHT22;73871;49.900;8.594;2024-03-25T09:56:04;23.30;79.40
13980;DHT22;73871;49.900;8.594;2024-03-25T09:58:30;21.50;80.00
13980;DHT22;73871;49.900;8.594;2024-03-25T10:00:57;21.80;81.80
13980;DHT22;73871;49.900;8.594;2024-03-25T10:03:23;20.00;83.20
13980;DHT22;73871;49.900;8.594;2024-03-25T10:05:50;19.30;84.30
13980;DHT22;73871;49.900;8.594;2024-03-25T10:08:22;20.10;88.00
13980;DHT22;73871;49.900;8.594;2024-03-25T10:10:48;22.00;85.90
13980;DHT22;73871;49.900;8.594;2024-03-25T10:13:16;22.10;81.50
13980;DHT22;73871;49.900;8.594;2024-03-25T10:15:43;20.00;81.90
13980;DHT22;73871;49.900;8.594;2024-03-25T10:18:11;18.60;86.30
13980;DHT22;73871;49.900;8.594;2024-03-25T10:20:37;19.00;90.20
13980;DHT22;73871;49.900;8.594;2024-03-25T10:23:03;20.10;87.60
13980;DHT22;73871;49.900;8.594;2024-03-25T10:25:31;19.80;87.20
13980;DHT22;73871;49.900;8.594;2024-03-25T10:28:00;19.80;84.80
13980;DHT22;73871;49.900;8.594;2024-03-25T10:30:28;19.90;84.80
13980;DHT22;73871;49.900;8.594;2024-03-25T10:35:26;20.00;86.40
13980;DHT22;73871;49.900;8.594;2024-03-25T10:37:56;19.80;85.70
13980;DHT22;73871;49.900;8.594;2024-03-25T10:40:28;19.20;86.70
13980;DHT22;73871;49.900;8.594;2024-03-25T10:43:05;19.10;86.30
13980;DHT22;73871;49.900;8.594;2024-03-25T10:45:35;18.50;89.60
13980;DHT22;73871;49.900;8.594;2024-03-25T10:48:09;18.70;90.00
13980;DHT22;73871;49.900;8.594;2024-03-25T10:50:36;17.70;84.70
13980;DHT22;73871;49.900;8.594;2024-03-25T10:53:04;17.20;87.70
13980;DHT22;73871;49.900;8.594;2024-03-25T10:55:31;16.80;90.70
13980;DHT22;73871;49.900;8.594;2024-03-25T10:58:00;16.50;90.70
13980;DHT22;73871;49.900;8.594;2024-03-25T11:00:26;16.40;90.60
13980;DHT22;73871;49.900;8.594;2024-03-25T11:02:52;16.40;93.90
13980;DHT22;73871;49.900;8.594;2024-03-25T11:05:19;16.40;92.60
13980;DHT22;73871;49.900;8.594;2024-03-25T11:07:44;16.40;93.30
13980;DHT22;73871;49.900;8.594;2024-03-25T11:10:12;16.10;92.40
13980;DHT22;73871;49.900;8.594;2024-03-25T11:12:40;16.20;92.40
13980;DHT22;73871;49.900;8.594;2024-03-25T11:15:06;16.30;93.60
13980;DHT22;73871;49.900;8.594;2024-03-25T11:17:48;16.10;90.90
13980;DHT22;73871;49.900;8.594;2024-03-25T11:20:16;16.20;92.20
13980;DHT22;73871;49.900;8.594;2024-03-25T11:22:51;16.40;91.90
13980;DHT22;73871;49.900;8.594;2024-03-25T11:25:17;16.40;92.50
13980;DHT22;73871;49.900;8.594;2024-03-25T11:27:46;16.70;92.10
13980;DHT22;73871;49.900;8.594;2024-03-25T11:30:15;16.30;91.10
13980;DHT22;73871;49.900;8.594;2024-03-25T11:32:52;15.70;92.60
13980;DHT22;73871;49.900;8.594;2024-03-25T11:35:18;15.70;93.10
13980;DHT22;73871;49.900;8.594;2024-03-25T11:37:44;15.70;93.20
13980;DHT22;73871;49.900;8.594;2024-03-25T11:40:11;15.70;92.40
13980;DHT22;73871;49.900;8.594;2024-03-25T11:42:43;15.80;93.60
13980;DHT22;73871;49.900;8.594;2024-03-25T11:45:20;16.00;97.10
13980;DHT22;73871;49.900;8.594;2024-03-25T11:47:48;16.10;94.80
13980;DHT22;73871;49.900;8.594;2024-03-25T11:50:16;16.10;95.10
13980;DHT22;73871;49.900;8.594;2024-03-25T11:52:43;16.10;93.80
13980;DHT22;73871;49.900;8.594;2024-03-25T11:55:09;15.60;93.30
13980;DHT22;73871;49.900;8.594;2024-03-25T11:57:38;15.40;93.40
13980;DHT22;73871;49.900;8.594;2024-03-25T12:00:04;15.30;93.20
13980;DHT22;73871;49.900;8.594;2024-03-25T12:02:42;15.60;96.80
13980;DHT22;73871;49.900;8.594;2024-03-25T12:05:08;15.60;96.00
13980;DHT22;73871;49.900;8.594;2024-03-25T12:07:34;15.80;93.10
13980;DHT22;73871;49.900;8.594;2024-03-25T12:10:02;15.40;95.20
13980;DHT22;73871;49.900;8.594;2024-03-25T12:12:47;15.70;95.30
13980;DHT22;73871;49.900;8.594;2024-03-25T12:15:13;15.90;95.10
13980;DHT22;73871;49.900;8.594;2024-03-25T12:17:39;15.80;90.90
13980;DHT22;73871;49.900;8.594;2024-03-25T12:20:07;15.40;90.20
13980;DHT22;73871;49.900;8.594;2024-03-25T12:22:35;15.00;90.90
13980;DHT22;73871;49.900;8.594;2024-03-25T12:25:05;14.70;91.40
13980;DHT22;73871;49.900;8.594;2024-03-25T12:27:35;14.30;91.70
13980;DHT22;73871;49.900;8.594;2024-03-25T12:30:04;14.10;92.60
13980;DHT22;73871;49.900;8.594;2024-03-25T12:32:36;14.00;92.70
13980;DHT22;73871;49.900;8.594;2024-03-25T12:35:02;13.80;93.50
13980;DHT22;73871;49.900;8.594;2024-03-25T12:37:29;14.00;92.80
13980;DHT22;73871;49.900;8.594;2024-03-25T12:39:56;13.90;94.40
13980;DHT22;73871;49.900;8.594;2024-03-25T12:42:24;14.40;98.20
13980;DHT22;73871;49.900;8.594;2024-03-25T12:44:53;14.70;98.00
13980;DHT22;73871;49.900;8.594;2024-03-25T12:47:19;14.80;99.90
13980;DHT22;73871;49.900;8.594;2024-03-25T12:49:45;15.00;95.60
13980;DHT22;73871;49.900;8.594;2024-03-25T12:52:11;14.60;93.30
13980;DHT22;73871;49.900;8.594;2024-03-25T12:54:37;14.20;96.60
13980;DHT22;73871;49.900;8.594;2024-03-25T12:57:03;14.40;96.40
13980;DHT22;73871;49.900;8.594;2024-03-25T12:59:29;14.70;97.40
13980;DHT22;73871;49.900;8.594;2024-03-25T13:01:55;14.90;95.90
13980;DHT22;73871;49.900;8.594;2024-03-25T13:04:21;15.00;95.20
13980;DHT22;73871;49.900;8.594;2024-03-25T13:06:47;15.00;96.00
13980;DHT22;73871;49.900;8.594;2024-03-25T13:09:13;15.10;96.90
13980;DHT22;73871;49.900;8.594;2024-03-25T13:11:38;15.20;97.60
13980;DHT22;73871;49.900;8.594;2024-03-25T13:14:04;15.30;96.70
13980;DHT22;73871;49.900;8.594;2024-03-25T13:16:33;15.30;96.00
13980;DHT22;73871;49.900;8.594;2024-03-25T13:18:59;15.00;93.30
13980;DHT22;73871;49.900;8.594;2024-03-25T13:21:25;15.00;94.20
13980;DHT22;73871;49.900;8.594;2024-03-25T13:23:52;15.10;95.40
13980;DHT22;73871;49.900;8.594;2024-03-25T13:26:17;14.60;91.00
13980;DHT22;73871;49.900;8.594;2024-03-25T13:28:43;14.40;93.10
13980;DHT22;73871;49.900;8.594;2024-03-25T13:31:09;14.60;91.50
13980;DHT22;73871;49.900;8.594;2024-03-25T13:33:35;14.50;89.40
13980;DHT22;73871;49.900;8.594;2024-03-25T13:36:03;14.40;91.40
13980;DHT22;73871;49.900;8.594;2024-03-25T13:38:29;14.20;92.00
13980;DHT22;73871;49.900;8.594;2024-03-25T13:40:55;14.30;92.90
13980;DHT22;73871;49.900;8.594;2024-03-25T13:43:20;14.30;93.40
13980;DHT22;73871;49.900;8.594;2024-03-25T13:45:48;14.40;93.70
13980;DHT22;73871;49.900;8.594;2024-03-25T13:48:15;14.40;94.30
13980;DHT22;73871;49.900;8.594;2024-03-25T13:50:41;14.40;92.20
13980;DHT22;73871;49.900;8.594;2024-03-25T13:53:08;14.30;91.60
13980;DHT22;73871;49.900;8.594;2024-03-25T13:55:34;14.20;91.40
13980;DHT22;73871;49.900;8.594;2024-03-25T13:58:00;14.20;92.50
13980;DHT22;73871;49.900;8.594;2024-03-25T14:00:25;14.10;92.80
13980;DHT22;73871;49.900;8.594;2024-03-25T14:02:54;14.20;92.00
13980;DHT22;73871;49.900;8.594;2024-03-25T14:05:21;14.30;93.10
13980;DHT22;73871;49.900;8.594;2024-03-25T14:07:49;14.40;93.00
13980;DHT22;73871;49.900;8.594;2024-03-25T14:10:15;14.40;93.60
13980;DHT22;73871;49.900;8.594;2024-03-25T14:12:41;14.10;93.20
13980;DHT22;73871;49.900;8.594;2024-03-25T14:15:07;14.10;93.20
13980;DHT22;73871;49.900;8.594;2024-03-25T14:17:33;13.90;92.10
13980;DHT22;73871;49.900;8.594;2024-03-25T14:19:59;13.80;92.30
13980;DHT22;73871;49.900;8.594;2024-03-25T14:22:25;13.80;92.10
13980;DHT22;73871;49.900;8.594;2024-03-25T14:24:51;14.00;94.10
13980;DHT22;73871;49.900;8.594;2024-03-25T14:27:22;14.00;94.10
13980;DHT22;73871;49.900;8.594;2024-03-25T14:29:48;14.10;94.90
13980;DHT22;73871;49.900;8.594;2024-03-25T14:32:14;14.20;92.10
13980;DHT22;73871;49.900;8.594;2024-03-25T14:34:39;14.30;94.00
13980;DHT22;73871;49.900;8.594;2024-03-25T14:37:05;14.20;94.50
13980;DHT22;73871;49.900;8.594;2024-03-25T14:39:31;14.20;94.50
13980;DHT22;73871;49.900;8.594;2024-03-25T14:41:57;14.00;91.00
13980;DHT22;73871;49.900;8.594;2024-03-25T14:44:23;13.90;91.00
13980;DHT22;73871;49.900;8.594;2024-03-25T14:46:49;13.50;91.00
13980;DHT22;73871;49.900;8.594;2024-03-25T14:49:15;13.40;91.30
13980;DHT22;73871;49.900;8.594;2024-03-25T14:51:41;13.10;91.20
13980;DHT22;73871;49.900;8.594;2024-03-25T14:54:07;13.20;91.70
13980;DHT22;73871;49.900;8.594;2024-03-25T14:56:33;13.20;91.80
13980;DHT22;73871;49.900;8.594;2024-03-25T14:58:58;13.20;90.50
13980;DHT22;73871;49.900;8.594;2024-03-25T15:01:24;13.10;89.40
13980;DHT22;73871;49.900;8.594;2024-03-25T15:03:50;13.00;89.20
13980;DHT22;73871;49.900;8.594;2024-03-25T15:06:16;13.30;91.00
13980;DHT22;73871;49.900;8.594;2024-03-25T15:08:42;13.40;87.40
13980;DHT22;73871;49.900;8.594;2024-03-25T15:11:09;13.30;85.20
13980;DHT22;73871;49.900;8.594;2024-03-25T15:13:36;13.00;86.60
13980;DHT22;73871;49.900;8.594;2024-03-25T15:16:05;13.00;87.30
13980;DHT22;73871;49.900;8.594;2024-03-25T15:18:31;12.80;84.50
13980;DHT22;73871;49.900;8.594;2024-03-25T15:21:03;13.10;85.40
13980;DHT22;73871;49.900;8.594;2024-03-25T15:23:30;13.20;88.20
13980;DHT22;73871;49.900;8.594;2024-03-25T15:25:57;13.20;85.90
13980;DHT22;73871;49.900;8.594;2024-03-25T15:28:24;12.90;86.30
13980;DHT22;73871;49.900;8.594;2024-03-25T15:30:50;12.70;86.70
13980;DHT22;73871;49.900;8.594;2024-03-25T15:33:16;12.80;87.80
13980;DHT22;73871;49.900;8.594;2024-03-25T15:35:43;12.70;88.00
13980;DHT22;73871;49.900;8.594;2024-03-25T15:38:09;12.70;90.30